createdAt,value
2023-01-19T00:02:19.015Z,39.81
2023-01-19T00:04:49.438Z,39.96
2023-01-19T00:07:20.832Z,39.64
2023-01-19T00:09:51.341Z,39.77
2023-01-19T00:12:21.307Z,39.95
2023-01-19T00:14:51.565Z,39.63
2023-01-19T00:17:22.043Z,39.90
2023-01-19T00:19:52.659Z,39.92
2023-01-19T00:22:24.379Z,39.68
2023-01-19T00:24:54.960Z,39.53
2023-01-19T00:27:25.493Z,39.75
2023-01-19T00:29:55.762Z,39.58
2023-01-19T00:32:27.549Z,39.58
2023-01-19T00:34:59.028Z,39.34
2023-01-19T00:37:31.667Z,39.57
2023-01-19T00:40:02.210Z,39.28
2023-01-19T00:42:44.924Z,39.75
2023-01-19T00:45:20.301Z,39.74
2023-01-19T00:47:57.554Z,39.57
2023-01-19T00:50:30.045Z,39.42
2023-01-19T00:53:03.750Z,39.38
2023-01-19T00:55:35.475Z,39.73
2023-01-19T00:58:05.519Z,39.65
2023-01-19T01:00:36.100Z,39.16
2023-01-19T01:03:07.023Z,39.31
2023-01-19T01:05:37.354Z,39.63
2023-01-19T01:08:09.630Z,39.26
2023-01-19T01:10:39.355Z,39.71
2023-01-19T01:13:21.241Z,39.56
2023-01-19T01:15:53.441Z,39.55
2023-01-19T01:18:24.598Z,39.71
2023-01-19T01:20:56.243Z,39.12
2023-01-19T01:23:28.450Z,39.63
2023-01-19T01:26:01.123Z,39.48
2023-01-19T01:28:32.107Z,39.25
2023-01-19T01:31:02.133Z,39.58
2023-01-19T01:33:40.496Z,39.58
2023-01-19T01:36:13.140Z,39.06
2023-01-19T01:38:44.862Z,39.05
2023-01-19T01:41:15.561Z,39.54
2023-01-19T01:43:49.599Z,39.39
2023-01-19T01:46:20.643Z,39.62
2023-01-19T01:49:00.231Z,39.19
2023-01-19T01:51:37.181Z,39.11
2023-01-19T01:54:19.144Z,38.90
2023-01-19T01:56:52.828Z,39.41
2023-01-19T01:59:30.285Z,39.14
2023-01-19T02:02:24.815Z,39.54
2023-01-19T02:05:01.149Z,39.10
2023-01-19T02:08:01.506Z,39.41
2023-01-19T02:10:50.959Z,39.34
2023-01-19T02:13:23.066Z,38.99
2023-01-19T02:15:56.211Z,39.45
2023-01-19T02:18:34.487Z,39.34
2023-01-19T02:21:14.862Z,39.45
2023-01-19T02:23:50.471Z,39.01
2023-01-19T02:26:25.685Z,39.34
2023-01-19T02:29:01.931Z,39.26
2023-01-19T02:31:35.442Z,39.33
2023-01-19T02:34:07.847Z,39.23
2023-01-19T02:36:43.987Z,39.08
2023-01-19T02:39:20.105Z,39.44
2023-01-19T02:41:56.636Z,39.19
2023-01-19T02:44:30.343Z,38.89
2023-01-19T02:47:01.099Z,39.16
2023-01-19T02:49:32.122Z,39.34
2023-01-19T02:52:05.129Z,39.38
2023-01-19T02:54:54.664Z,39.30
2023-01-19T02:57:52.357Z,39.41
2023-01-19T03:00:39.739Z,38.72
2023-01-19T03:03:28.468Z,39.37
2023-01-19T03:06:09.525Z,39.17
2023-01-19T03:08:55.416Z,39.46
2023-01-19T03:11:35.869Z,39.13
2023-01-19T03:14:15.228Z,39.34
2023-01-19T03:16:49.999Z,38.79
2023-01-19T03:19:27.669Z,39.23
2023-01-19T03:22:02.528Z,38.98
2023-01-19T03:24:39.404Z,39.54
2023-01-19T03:27:15.755Z,39.42
2023-01-19T03:29:53.367Z,39.02
2023-01-19T03:32:31.032Z,39.31
2023-01-19T03:35:08.132Z,39.34
2023-01-19T03:37:44.359Z,39.11
2023-01-19T03:40:16.331Z,38.86
2023-01-19T03:42:49.675Z,38.99
2023-01-19T03:45:22.195Z,39.07
2023-01-19T03:47:52.812Z,38.93
2023-01-19T03:50:30.093Z,39.31
2023-01-19T03:53:11.400Z,39.29
2023-01-19T03:55:45.438Z,38.90
2023-01-19T03:58:18.199Z,38.89
2023-01-19T04:00:48.792Z,38.96
2023-01-19T04:03:20.998Z,39.15
2023-01-19T04:05:51.342Z,39.00
2023-01-19T04:08:21.687Z,39.21
2023-01-19T04:10:52.294Z,39.07
2023-01-19T04:13:24.653Z,39.17
2023-01-19T04:15:55.160Z,39.31
2023-01-19T04:18:25.835Z,39.27
2023-01-19T04:20:56.294Z,39.40
2023-01-19T04:23:26.529Z,38.93
2023-01-19T04:26:00.606Z,39.51
2023-01-19T04:28:32.453Z,39.42
2023-01-19T04:31:02.589Z,39.49
2023-01-19T04:33:32.962Z,39.21
2023-01-19T04:36:04.429Z,39.45
2023-01-19T04:38:35.107Z,38.95
2023-01-19T04:41:05.176Z,39.42
2023-01-19T04:43:38.323Z,39.02
2023-01-19T04:46:09.371Z,39.58
2023-01-19T04:48:41.409Z,39.64
2023-01-19T04:51:12.456Z,39.60
2023-01-19T04:53:42.864Z,39.37
2023-01-19T04:56:13.335Z,39.14
2023-01-19T04:58:45.401Z,39.57
2023-01-19T05:01:15.518Z,39.45
2023-01-19T05:03:45.830Z,39.00
2023-01-19T05:06:15.618Z,39.01
2023-01-19T05:08:45.654Z,39.28
2023-01-19T05:11:16.248Z,38.97
2023-01-19T05:13:50.201Z,39.10
2023-01-19T05:16:20.881Z,39.05
2023-01-19T05:18:51.614Z,39.34
2023-01-19T05:21:21.844Z,39.13
2023-01-19T05:23:52.237Z,39.99
2023-01-19T05:26:22.705Z,40.03
2023-01-19T05:28:55.009Z,39.70
2023-01-19T05:31:25.521Z,40.17
2023-01-19T05:33:55.419Z,39.86
2023-01-19T05:36:25.352Z,39.71
2023-01-19T05:38:55.018Z,39.82
2023-01-19T05:41:24.955Z,40.03
2023-01-19T05:43:56.979Z,39.49
2023-01-19T05:46:27.474Z,39.46
2023-01-19T05:48:57.718Z,39.13
2023-01-19T05:51:32.303Z,39.53
2023-01-19T05:54:03.419Z,39.50
2023-01-19T05:56:33.685Z,39.36
2023-01-19T05:59:06.293Z,39.22
2023-01-19T06:01:39.670Z,39.47
2023-01-19T06:04:10.418Z,39.38
2023-01-19T06:06:40.631Z,39.32
2023-01-19T06:09:11.166Z,39.13
2023-01-19T06:11:41.795Z,39.80
2023-01-19T06:14:14.876Z,39.78
2023-01-19T06:16:45.320Z,40.21
2023-01-19T06:19:15.791Z,40.17
2023-01-19T06:21:50.436Z,40.48
2023-01-19T06:24:21.563Z,40.57
2023-01-19T06:26:52.102Z,40.58
2023-01-19T06:29:24.907Z,40.67
2023-01-19T06:31:56.096Z,40.57
2023-01-19T06:34:29.233Z,40.56
2023-01-19T06:37:00.109Z,40.93
2023-01-19T06:39:30.621Z,40.75
2023-01-19T06:42:01.063Z,40.95
2023-01-19T06:44:33.577Z,40.68
2023-01-19T06:47:14.963Z,40.39
2023-01-19T06:49:46.089Z,40.61
2023-01-19T06:52:17.891Z,40.21
2023-01-19T06:54:48.615Z,40.64
2023-01-19T06:57:19.770Z,40.38
2023-01-19T06:59:52.146Z,40.40
2023-01-19T07:02:26.179Z,40.14
2023-01-19T07:04:58.677Z,39.95
2023-01-19T07:07:29.724Z,39.89
2023-01-19T07:10:00.339Z,39.86
2023-01-19T07:12:30.975Z,39.60
2023-01-19T07:15:03.181Z,39.31
2023-01-19T07:17:33.981Z,39.44
2023-01-19T07:20:04.496Z,39.34
2023-01-19T07:22:34.829Z,38.93
2023-01-19T07:25:05.428Z,38.65
2023-01-19T07:27:36.150Z,38.67
2023-01-19T07:30:10.666Z,38.77
2023-01-19T07:32:43.044Z,38.01
2023-01-19T07:35:14.887Z,38.45
2023-01-19T07:37:45.348Z,37.99
2023-01-19T07:40:16.562Z,37.80
2023-01-19T07:42:50.829Z,37.13
2023-01-19T07:45:24.387Z,37.34
2023-01-19T07:47:54.739Z,37.36
2023-01-19T07:50:28.192Z,37.09
2023-01-19T07:52:59.673Z,36.58
2023-01-19T07:55:30.053Z,36.89
2023-01-19T07:58:00.463Z,36.39
2023-01-19T08:00:33.488Z,36.45
2023-01-19T08:03:05.437Z,36.19
2023-01-19T08:05:37.649Z,35.81
2023-01-19T08:08:08.953Z,35.62
2023-01-19T08:10:39.534Z,35.62
2023-01-19T08:13:09.361Z,35.49
2023-01-19T08:15:44.314Z,35.20
2023-01-19T08:18:16.155Z,35.59
2023-01-19T08:20:46.878Z,35.36
2023-01-19T08:23:18.932Z,34.93
2023-01-19T08:25:49.536Z,35.14
2023-01-19T08:28:20.716Z,35.03
2023-01-19T08:30:57.181Z,34.89
2023-01-19T08:33:28.520Z,34.86
2023-01-19T08:35:58.654Z,35.21
2023-01-19T08:38:28.574Z,34.77
2023-01-19T08:40:59.121Z,35.17
2023-01-19T08:43:29.646Z,35.22
2023-01-19T08:46:02.517Z,34.84
2023-01-19T08:48:33.025Z,34.79
2023-01-19T08:51:03.185Z,34.55
2023-01-19T08:53:33.640Z,34.74
2023-01-19T08:56:04.229Z,34.37
2023-01-19T08:58:34.560Z,33.82
2023-01-19T09:01:07.238Z,33.30
2023-01-19T09:03:38.149Z,33.03
2023-01-19T09:06:09.523Z,32.02
2023-01-19T09:08:39.664Z,31.70
2023-01-19T09:11:13.244Z,31.05
2023-01-19T09:13:44.006Z,30.63
2023-01-19T09:16:16.517Z,30.88
2023-01-19T09:18:46.941Z,30.16
2023-01-19T09:21:17.084Z,30.40
2023-01-19T09:23:47.661Z,29.69
2023-01-19T09:26:18.009Z,29.46
2023-01-19T09:28:47.931Z,29.59
2023-01-19T09:31:20.571Z,29.55
2023-01-19T09:33:50.667Z,29.42
2023-01-19T09:36:20.990Z,29.32
2023-01-19T09:38:51.072Z,29.42
2023-01-19T09:41:25.502Z,29.14
2023-01-19T09:44:01.631Z,29.24
2023-01-19T09:46:41.928Z,29.64
2023-01-19T09:49:18.461Z,29.48
2023-01-19T09:51:53.034Z,28.89
2023-01-19T09:54:31.725Z,29.25
2023-01-19T09:57:02.168Z,29.08
2023-01-19T09:59:34.931Z,29.25
2023-01-19T10:02:34.093Z,29.35
2023-01-19T10:05:06.587Z,29.23
2023-01-19T10:07:56.915Z,29.54
2023-01-19T10:10:30.983Z,29.25
2023-01-19T10:13:32.184Z,28.89
2023-01-19T10:16:27.603Z,28.82
2023-01-19T10:19:05.789Z,28.32
2023-01-19T10:21:45.058Z,28.21
2023-01-19T10:24:25.246Z,28.80
2023-01-19T10:26:58.332Z,28.30
2023-01-19T10:29:35.657Z,28.66
2023-01-19T10:32:12.083Z,28.37
2023-01-19T10:34:44.280Z,28.53
2023-01-19T10:37:30.894Z,28.35
2023-01-19T10:40:21.682Z,28.26
2023-01-19T10:42:52.399Z,28.41
2023-01-19T10:45:26.391Z,28.23
2023-01-19T10:48:02.240Z,28.27
2023-01-19T10:50:37.493Z,27.90
2023-01-19T10:53:09.158Z,28.05
2023-01-19T10:55:43.104Z,27.88
2023-01-19T10:58:31.085Z,27.94
2023-01-19T11:01:19.279Z,28.04
2023-01-19T11:03:49.696Z,27.93
2023-01-19T11:06:36.771Z,27.86
2023-01-19T11:09:20.097Z,27.86
2023-01-19T11:11:54.408Z,28.01
2023-01-19T11:14:27.638Z,27.97
2023-01-19T11:16:59.971Z,27.82
2023-01-19T11:19:34.046Z,27.72
2023-01-19T11:22:23.087Z,28.10
2023-01-19T11:24:53.512Z,27.95
2023-01-19T11:27:24.959Z,28.09
2023-01-19T11:30:10.135Z,28.10
2023-01-19T11:32:40.552Z,28.08
2023-01-19T11:35:36.361Z,28.00
2023-01-19T11:38:23.597Z,28.06
2023-01-19T11:41:00.304Z,27.76
2023-01-19T11:43:48.325Z,27.79
2023-01-19T11:46:21.241Z,27.73
2023-01-19T11:49:02.308Z,27.57
2023-01-19T11:51:43.434Z,27.65
2023-01-19T11:54:26.052Z,27.63
2023-01-19T11:57:01.353Z,27.36
2023-01-19T11:59:32.053Z,27.64
2023-01-19T12:02:07.810Z,27.36
2023-01-19T12:04:44.823Z,27.30
2023-01-19T12:07:19.320Z,27.46
2023-01-19T12:09:58.966Z,27.18
2023-01-19T12:12:33.204Z,27.14
2023-01-19T12:15:10.906Z,26.97
2023-01-19T12:17:50.588Z,26.99
2023-01-19T12:20:32.322Z,27.14
2023-01-19T12:23:24.139Z,27.12
2023-01-19T12:26:35.866Z,27.04
2023-01-19T12:29:15.753Z,27.08
2023-01-19T12:31:46.771Z,26.61
2023-01-19T12:34:43.303Z,26.96
2023-01-19T12:37:38.027Z,27.02
2023-01-19T12:40:27.252Z,27.16
2023-01-19T12:43:05.738Z,27.01
2023-01-19T12:45:40.016Z,27.00
2023-01-19T12:48:29.724Z,26.88
2023-01-19T12:51:00.220Z,26.98
2023-01-19T12:53:31.403Z,26.93
2023-01-19T12:56:06.758Z,26.78
2023-01-19T12:58:39.323Z,26.86
2023-01-19T13:01:20.638Z,26.88
2023-01-19T13:04:07.590Z,26.78
2023-01-19T13:07:19.744Z,26.87
2023-01-19T13:09:50.081Z,26.93
2023-01-19T13:12:26.462Z,26.60
2023-01-19T13:15:37.738Z,26.78
2023-01-19T13:18:11.482Z,26.71
2023-01-19T13:20:53.133Z,26.87
2023-01-19T13:23:30.240Z,26.84
2023-01-19T13:26:09.439Z,26.64
2023-01-19T13:28:45.884Z,26.54
2023-01-19T13:31:19.605Z,26.58
2023-01-19T13:33:55.126Z,26.43
2023-01-19T13:36:32.362Z,26.56
2023-01-19T13:39:07.700Z,26.34
2023-01-19T13:41:43.890Z,26.56
2023-01-19T13:44:24.335Z,26.33
2023-01-19T13:47:00.188Z,26.46
2023-01-19T13:49:35.842Z,26.32
2023-01-19T13:52:25.333Z,26.34
2023-01-19T13:55:01.260Z,26.45
2023-01-19T13:57:34.868Z,26.42
2023-01-19T14:00:17.872Z,26.58
2023-01-19T14:03:01.043Z,26.57
2023-01-19T14:05:34.602Z,26.65
2023-01-19T14:08:09.236Z,26.37
2023-01-19T14:10:42.436Z,26.34
2023-01-19T14:13:19.811Z,26.54
2023-01-19T14:15:54.311Z,26.40
2023-01-19T14:18:32.532Z,26.59
2023-01-19T14:21:06.800Z,26.41
2023-01-19T14:23:49.644Z,26.35
2023-01-19T14:26:46.044Z,26.61
2023-01-19T14:29:25.967Z,26.47
2023-01-19T14:32:14.419Z,26.55
2023-01-19T14:34:48.682Z,26.70
2023-01-19T14:37:27.096Z,26.71
2023-01-19T14:40:05.006Z,26.76
2023-01-19T14:42:40.104Z,26.57
2023-01-19T14:45:20.703Z,26.77
2023-01-19T14:48:00.205Z,26.70
2023-01-19T14:50:36.694Z,27.05
2023-01-19T14:53:10.533Z,26.75
2023-01-19T14:55:49.108Z,26.67
2023-01-19T14:58:23.221Z,26.50
2023-01-19T15:00:56.160Z,26.91
2023-01-19T15:03:42.637Z,26.86
2023-01-19T15:06:19.724Z,26.78
2023-01-19T15:08:51.305Z,26.79
2023-01-19T15:11:29.272Z,26.81
2023-01-19T15:14:00.527Z,26.91
2023-01-19T15:16:40.049Z,26.94
2023-01-19T15:19:15.268Z,27.10
2023-01-19T15:21:47.413Z,27.11
2023-01-19T15:24:18.480Z,27.13
2023-01-19T15:26:49.401Z,27.07
2023-01-19T15:29:27.767Z,27.13
2023-01-19T15:31:58.039Z,26.77
2023-01-19T15:34:28.578Z,27.13
2023-01-19T15:37:00.443Z,27.01
2023-01-19T15:39:31.005Z,26.94
2023-01-19T15:42:01.352Z,27.06
2023-01-19T15:44:32.623Z,27.11
2023-01-19T15:47:02.592Z,27.14
2023-01-19T15:49:32.866Z,27.07
2023-01-19T15:52:04.738Z,27.18
2023-01-19T15:54:35.125Z,27.01
2023-01-19T15:57:05.854Z,27.43
2023-01-19T15:59:36.385Z,27.17
2023-01-19T16:02:06.450Z,26.92
2023-01-19T16:04:37.078Z,27.20
2023-01-19T16:07:09.463Z,27.25
2023-01-19T16:09:40.760Z,27.33
2023-01-19T16:12:10.849Z,27.47
2023-01-19T16:14:41.288Z,27.44
2023-01-19T16:17:11.726Z,27.34
2023-01-19T16:19:41.794Z,27.14
2023-01-19T16:22:13.722Z,27.23
2023-01-19T16:24:44.035Z,27.41
2023-01-19T16:27:14.875Z,27.21
2023-01-19T16:29:45.419Z,27.43
2023-01-19T16:32:17.009Z,27.58
2023-01-19T16:34:47.738Z,27.56
2023-01-19T16:37:20.475Z,27.40
2023-01-19T16:39:53.154Z,27.38
2023-01-19T16:42:23.552Z,27.44
2023-01-19T16:44:55.087Z,27.41
2023-01-19T16:47:25.739Z,27.73
2023-01-19T16:49:56.441Z,27.50
2023-01-19T16:52:28.414Z,27.68
2023-01-19T16:54:58.569Z,27.77
2023-01-19T16:57:29.324Z,27.93
2023-01-19T16:59:59.871Z,28.03
2023-01-19T17:02:30.456Z,27.83
2023-01-19T17:05:01.199Z,27.86
2023-01-19T17:07:33.769Z,27.63
2023-01-19T17:10:04.320Z,27.82
2023-01-19T17:12:33.995Z,27.84
2023-01-19T17:15:03.912Z,27.82
2023-01-19T17:17:35.479Z,27.79
2023-01-19T17:20:05.998Z,27.54
2023-01-19T17:22:38.748Z,27.82
2023-01-19T17:25:10.881Z,27.92
2023-01-19T17:27:41.040Z,28.25
2023-01-19T17:30:13.458Z,27.79
2023-01-19T17:32:44.430Z,27.61
2023-01-19T17:35:15.525Z,28.25
2023-01-19T17:37:47.721Z,27.93
2023-01-19T17:40:18.781Z,28.17
2023-01-19T17:42:49.144Z,27.75
2023-01-19T17:45:19.690Z,28.21
2023-01-19T17:47:51.934Z,28.25
2023-01-19T17:50:22.507Z,27.90
2023-01-19T17:52:54.480Z,28.41
2023-01-19T17:55:24.846Z,28.24
2023-01-19T17:57:54.798Z,28.24
2023-01-19T18:00:25.783Z,28.44
2023-01-19T18:02:55.865Z,27.95
2023-01-19T18:05:26.749Z,28.22
2023-01-19T18:08:00.584Z,28.48
2023-01-19T18:10:30.697Z,28.64
2023-01-19T18:13:00.556Z,28.32
2023-01-19T18:15:30.341Z,28.22
2023-01-19T18:17:59.960Z,28.36
2023-01-19T18:20:31.893Z,28.42
2023-01-19T18:23:03.859Z,28.22
2023-01-19T18:25:34.753Z,28.21
2023-01-19T18:28:06.486Z,28.34
2023-01-19T18:30:40.265Z,28.35
2023-01-19T18:33:11.001Z,28.33
2023-01-19T18:35:43.105Z,28.46
2023-01-19T18:38:16.083Z,28.58
2023-01-19T18:40:47.192Z,28.43
2023-01-19T18:43:17.608Z,28.49
2023-01-19T18:45:50.310Z,28.50
2023-01-19T18:48:20.863Z,28.57
2023-01-19T18:50:51.402Z,28.62
2023-01-19T18:53:24.087Z,28.52
2023-01-19T18:55:56.054Z,28.65
2023-01-19T18:58:28.964Z,28.28
2023-01-19T19:01:00.005Z,28.72
2023-01-19T19:03:31.200Z,28.50
2023-01-19T19:06:05.836Z,28.51
2023-01-19T19:08:38.805Z,28.42
2023-01-19T19:11:13.367Z,29.05
2023-01-19T19:13:44.977Z,28.84
2023-01-19T19:16:16.017Z,28.48
2023-01-19T19:18:46.146Z,28.49
2023-01-19T19:21:16.435Z,28.85
2023-01-19T19:23:54.484Z,29.04
2023-01-19T19:26:26.156Z,29.02
2023-01-19T19:28:57.243Z,28.78
2023-01-19T19:31:28.214Z,29.19
2023-01-19T19:34:01.316Z,28.94
2023-01-19T19:36:32.287Z,28.94
2023-01-19T19:39:05.136Z,28.86
2023-01-19T19:41:38.801Z,29.11
2023-01-19T19:44:09.280Z,28.91
2023-01-19T19:46:40.984Z,28.75
2023-01-19T19:49:11.279Z,29.27
2023-01-19T19:51:41.255Z,28.97
2023-01-19T19:54:13.741Z,29.41
2023-01-19T19:56:44.900Z,29.16
2023-01-19T19:59:15.425Z,29.00
2023-01-19T20:01:47.712Z,29.01
2023-01-19T20:04:20.727Z,29.32
2023-01-19T20:06:51.646Z,29.16
2023-01-19T20:09:24.126Z,29.26
2023-01-19T20:11:54.304Z,29.23
2023-01-19T20:14:25.740Z,29.22
2023-01-19T20:16:55.652Z,29.36
2023-01-19T20:19:27.913Z,29.70
2023-01-19T20:21:58.507Z,29.31
2023-01-19T20:24:31.192Z,29.15
2023-01-19T20:27:01.660Z,29.68
2023-01-19T20:29:32.197Z,29.68
2023-01-19T20:32:03.063Z,29.37
2023-01-19T20:34:36.132Z,29.49
2023-01-19T20:37:06.657Z,29.84
2023-01-19T20:39:38.739Z,29.52
2023-01-19T20:42:11.673Z,29.64
2023-01-19T20:44:42.800Z,29.59
2023-01-19T20:47:13.486Z,29.62
2023-01-19T20:49:43.573Z,29.58
2023-01-19T20:52:13.990Z,29.93
2023-01-19T20:54:46.352Z,29.93
2023-01-19T20:57:16.948Z,29.98
2023-01-19T20:59:47.576Z,29.52
2023-01-19T21:02:18.010Z,30.05
2023-01-19T21:04:48.127Z,29.50
2023-01-19T21:07:17.856Z,29.79
2023-01-19T21:09:49.836Z,30.01
2023-01-19T21:12:21.963Z,29.53
2023-01-19T21:14:52.272Z,30.17
2023-01-19T21:17:22.679Z,29.76
2023-01-19T21:19:53.296Z,30.04
2023-01-19T21:22:23.919Z,29.86
2023-01-19T21:24:56.478Z,30.04
2023-01-19T21:27:27.053Z,29.70
2023-01-19T21:29:59.594Z,30.00
2023-01-19T21:32:29.624Z,29.87
2023-01-19T21:34:59.990Z,30.36
2023-01-19T21:37:32.156Z,30.18
2023-01-19T21:40:04.512Z,29.90
2023-01-19T21:42:34.739Z,30.04
2023-01-19T21:45:04.505Z,29.93
2023-01-19T21:47:36.698Z,30.07
2023-01-19T21:50:07.906Z,30.32
2023-01-19T21:52:39.517Z,30.26
2023-01-19T21:55:13.593Z,30.16
2023-01-19T21:57:43.795Z,30.30
2023-01-19T22:00:14.494Z,30.09
2023-01-19T22:02:49.448Z,30.07
2023-01-19T22:05:28.808Z,29.97
2023-01-19T22:07:59.351Z,30.50
2023-01-19T22:10:31.905Z,29.93
2023-01-19T22:13:02.146Z,30.04
2023-01-19T22:15:32.801Z,30.14
2023-01-19T22:18:04.578Z,30.16
2023-01-19T22:20:39.777Z,30.22
2023-01-19T22:23:10.039Z,30.33
2023-01-19T22:25:42.560Z,30.54
2023-01-19T22:28:12.943Z,30.64
2023-01-19T22:30:44.003Z,30.36
2023-01-19T22:33:14.548Z,30.23
2023-01-19T22:35:44.769Z,30.40
2023-01-19T22:38:15.568Z,30.73
2023-01-19T22:40:48.561Z,30.54
2023-01-19T22:43:18.921Z,30.24
2023-01-19T22:45:48.977Z,30.44
2023-01-19T22:48:18.846Z,30.74
2023-01-19T22:50:49.807Z,30.40
2023-01-19T22:53:20.454Z,30.41
2023-01-19T22:55:52.480Z,30.94
2023-01-19T22:58:23.053Z,30.71
2023-01-19T23:00:53.235Z,30.25
2023-01-19T23:03:23.280Z,30.66
2023-01-19T23:05:54.453Z,30.49
2023-01-19T23:08:25.225Z,30.51
2023-01-19T23:10:57.764Z,30.51
2023-01-19T23:13:27.590Z,30.55
2023-01-19T23:15:59.700Z,30.43
2023-01-19T23:18:30.472Z,30.44
2023-01-19T23:21:07.791Z,30.86
2023-01-19T23:23:38.759Z,30.41
2023-01-19T23:26:14.403Z,30.75
2023-01-19T23:28:45.454Z,30.92
2023-01-19T23:31:22.798Z,30.68
2023-01-19T23:33:54.699Z,30.92
2023-01-19T23:36:26.526Z,30.46
2023-01-19T23:38:59.109Z,30.90
2023-01-19T23:41:35.070Z,30.61
2023-01-19T23:44:06.255Z,30.70
2023-01-19T23:46:36.849Z,30.72
2023-01-19T23:49:07.516Z,30.83
2023-01-19T23:51:38.027Z,31.21
2023-01-19T23:54:08.686Z,31.13
2023-01-19T23:56:43.184Z,30.64
2023-01-19T23:59:15.348Z,30.82
